createdAt,value
2023-03-30T00:02:05.347Z,5.47
2023-03-30T00:04:34.714Z,5.67
2023-03-30T00:07:01.379Z,5.47
2023-03-30T00:09:30.870Z,5.10
2023-03-30T00:12:02.800Z,4.93
2023-03-30T00:14:29.774Z,5.00
2023-03-30T00:16:57.102Z,5.23
2023-03-30T00:19:23.628Z,5.23
2023-03-30T00:21:50.935Z,6.20
2023-03-30T00:24:17.412Z,5.97
2023-03-30T00:26:43.891Z,6.00
2023-03-30T00:29:10.549Z,5.20
2023-03-30T00:31:37.427Z,5.00
2023-03-30T00:34:03.906Z,5.27
2023-03-30T00:36:30.616Z,4.87
2023-03-30T00:38:57.149Z,5.30
2023-03-30T00:41:23.602Z,5.23
2023-03-30T00:43:57.358Z,4.97
2023-03-30T00:46:23.998Z,5.17
2023-03-30T00:48:50.668Z,5.30
2023-03-30T00:51:17.797Z,4.87
2023-03-30T00:53:47.219Z,4.97
2023-03-30T00:56:16.106Z,4.97
2023-03-30T00:58:43.670Z,5.87
2023-03-30T01:01:12.137Z,4.63
2023-03-30T01:03:43.544Z,5.57
2023-03-30T01:06:22.099Z,5.10
2023-03-30T01:08:49.246Z,5.27
2023-03-30T01:11:15.812Z,5.00
2023-03-30T01:13:44.537Z,5.17
2023-03-30T01:16:30.341Z,5.57
2023-03-30T01:19:26.198Z,5.70
2023-03-30T01:22:04.823Z,5.57
2023-03-30T01:24:53.511Z,4.90
2023-03-30T01:27:46.255Z,5.80
2023-03-30T01:30:31.791Z,5.20
2023-03-30T01:32:58.308Z,5.13
2023-03-30T01:35:24.880Z,5.10
2023-03-30T01:37:51.447Z,4.97
2023-03-30T01:40:23.790Z,4.90
2023-03-30T01:43:23.376Z,4.20
2023-03-30T01:46:01.499Z,5.00
2023-03-30T01:48:35.795Z,4.80
2023-03-30T01:51:09.976Z,4.23
2023-03-30T01:53:43.090Z,4.30
2023-03-30T01:56:09.558Z,4.30
2023-03-30T01:58:39.377Z,4.30
2023-03-30T02:01:09.257Z,3.97
2023-03-30T02:03:38.877Z,4.43
2023-03-30T02:06:10.583Z,4.20
2023-03-30T02:08:38.207Z,4.10
2023-03-30T02:11:05.007Z,4.10
2023-03-30T02:13:32.856Z,3.80
2023-03-30T02:16:02.915Z,4.10
2023-03-30T02:18:29.433Z,4.10
2023-03-30T02:20:58.925Z,4.53
2023-03-30T02:23:28.251Z,4.20
2023-03-30T02:25:55.380Z,4.47
2023-03-30T02:28:22.376Z,4.30
2023-03-30T02:30:48.840Z,4.63
2023-03-30T02:33:38.866Z,4.53
2023-03-30T02:36:11.823Z,4.57
2023-03-30T02:38:51.696Z,4.67
2023-03-30T02:41:32.858Z,4.47
2023-03-30T02:44:06.755Z,4.73
2023-03-30T02:46:33.175Z,5.00
2023-03-30T02:49:02.476Z,5.00
2023-03-30T02:51:32.057Z,5.00
2023-03-30T02:54:06.754Z,5.50
2023-03-30T02:56:34.033Z,5.97
2023-03-30T02:59:06.044Z,6.70
2023-03-30T03:01:32.524Z,5.80
2023-03-30T03:04:00.139Z,12.93
2023-03-30T03:06:27.418Z,7.37
2023-03-30T03:08:54.868Z,6.40
2023-03-30T03:11:21.901Z,6.73
2023-03-30T03:13:48.622Z,6.40
2023-03-30T03:16:15.594Z,6.50
2023-03-30T03:18:42.237Z,6.17
2023-03-30T03:21:10.072Z,5.77
2023-03-30T03:23:36.724Z,6.03
2023-03-30T03:26:03.929Z,6.60
2023-03-30T03:28:30.594Z,5.87
2023-03-30T03:30:58.468Z,5.80
2023-03-30T03:33:28.110Z,7.00
2023-03-30T03:35:55.033Z,7.03
2023-03-30T03:38:25.038Z,7.17
2023-03-30T03:40:52.634Z,6.73
2023-03-30T03:43:19.139Z,6.93
2023-03-30T03:45:46.821Z,6.70
2023-03-30T03:48:14.157Z,6.60
2023-03-30T03:50:41.563Z,7.00
2023-03-30T03:53:08.536Z,6.33
2023-03-30T03:55:35.393Z,7.60
2023-03-30T03:58:02.457Z,7.13
2023-03-30T04:00:29.366Z,5.80
2023-03-30T04:02:55.929Z,6.00
2023-03-30T04:05:22.702Z,7.20
2023-03-30T04:07:49.202Z,6.97
2023-03-30T04:10:15.941Z,7.33
2023-03-30T04:12:42.380Z,10.00
2023-03-30T04:15:10.756Z,12.17
2023-03-30T04:17:37.379Z,10.73
2023-03-30T04:20:12.153Z,9.57
2023-03-30T04:22:42.092Z,10.20
2023-03-30T04:25:09.738Z,9.13
2023-03-30T04:27:37.752Z,10.00
2023-03-30T04:30:05.591Z,9.60
2023-03-30T04:32:34.919Z,9.70
2023-03-30T04:35:01.672Z,9.80
2023-03-30T04:37:30.884Z,13.80
2023-03-30T04:39:58.252Z,38.37
2023-03-30T04:42:34.186Z,15.77
2023-03-30T04:45:01.041Z,13.00
2023-03-30T04:47:28.003Z,12.13
2023-03-30T04:49:54.755Z,11.50
2023-03-30T04:52:21.265Z,11.23
2023-03-30T04:54:47.706Z,10.53
2023-03-30T04:57:15.126Z,10.53
2023-03-30T04:59:42.125Z,10.97
2023-03-30T05:02:09.214Z,10.53
2023-03-30T05:04:36.002Z,10.63
2023-03-30T05:07:02.532Z,10.13
2023-03-30T05:09:28.990Z,9.47
2023-03-30T05:11:55.484Z,10.07
2023-03-30T05:14:22.011Z,34.63
2023-03-30T05:16:48.540Z,22.43
2023-03-30T05:19:15.215Z,13.53
2023-03-30T05:21:41.724Z,12.43
2023-03-30T05:24:08.196Z,11.73
2023-03-30T05:26:34.721Z,10.97
2023-03-30T05:29:04.866Z,9.83
2023-03-30T05:31:31.736Z,9.43
2023-03-30T05:33:58.225Z,9.10
2023-03-30T05:36:24.766Z,9.57
2023-03-30T05:38:51.434Z,9.40
2023-03-30T05:41:17.901Z,9.30
2023-03-30T05:43:44.354Z,8.73
2023-03-30T05:46:11.033Z,9.10
2023-03-30T05:48:37.578Z,9.40
2023-03-30T05:51:04.470Z,9.00
2023-03-30T05:53:31.131Z,7.60
2023-03-30T05:55:57.652Z,12.33
2023-03-30T05:58:24.395Z,13.77
2023-03-30T06:00:50.874Z,52.50
2023-03-30T06:03:17.551Z,10.17
2023-03-30T06:05:44.175Z,7.40
2023-03-30T06:08:11.986Z,5.60
2023-03-30T06:10:38.511Z,5.23
2023-03-30T06:13:05.585Z,4.90
2023-03-30T06:15:32.883Z,5.93
2023-03-30T06:18:00.430Z,8.67
2023-03-30T06:20:26.989Z,5.77
2023-03-30T06:22:53.442Z,7.20
2023-03-30T06:25:24.732Z,5.50
2023-03-30T06:27:51.514Z,6.10
2023-03-30T06:30:18.058Z,6.67
2023-03-30T06:32:44.650Z,6.00
2023-03-30T06:35:13.443Z,5.73
2023-03-30T06:37:40.510Z,5.60
2023-03-30T06:40:13.520Z,5.30
2023-03-30T06:42:41.778Z,5.13
2023-03-30T06:45:09.340Z,5.83
2023-03-30T06:47:56.519Z,5.07
2023-03-30T06:50:23.346Z,5.60
2023-03-30T06:52:50.006Z,5.27
2023-03-30T06:55:16.535Z,5.43
2023-03-30T06:57:43.274Z,8.73
2023-03-30T07:00:13.918Z,6.47
2023-03-30T07:02:44.037Z,6.47
2023-03-30T07:05:10.727Z,7.10
2023-03-30T07:07:37.289Z,7.00
2023-03-30T07:10:10.515Z,6.30
2023-03-30T07:12:41.435Z,7.50
2023-03-30T07:15:08.958Z,7.13
2023-03-30T07:17:36.054Z,7.47
2023-03-30T07:20:04.047Z,9.60
2023-03-30T07:22:30.483Z,8.17
2023-03-30T07:24:57.011Z,6.37
2023-03-30T07:27:27.252Z,7.77
2023-03-30T07:29:54.382Z,6.13
2023-03-30T07:32:21.341Z,6.40
2023-03-30T07:34:47.789Z,6.63
2023-03-30T07:37:20.288Z,6.50
2023-03-30T07:39:47.923Z,7.47
2023-03-30T07:42:14.564Z,6.97
2023-03-30T07:44:41.148Z,7.27
2023-03-30T07:47:07.930Z,7.63
2023-03-30T07:49:34.794Z,6.83
2023-03-30T07:52:01.472Z,6.93
2023-03-30T07:54:28.028Z,7.17
2023-03-30T07:56:54.540Z,7.30
2023-03-30T07:59:21.984Z,9.17
2023-03-30T08:01:50.394Z,48.03
2023-03-30T08:04:17.498Z,7.80
2023-03-30T08:06:44.477Z,6.70
2023-03-30T08:09:10.995Z,6.93
2023-03-30T08:11:37.505Z,7.67
2023-03-30T08:14:04.189Z,7.30
2023-03-30T08:16:30.968Z,7.70
2023-03-30T08:18:57.581Z,8.40
2023-03-30T08:21:26.004Z,9.43
2023-03-30T08:23:53.054Z,14.03
2023-03-30T08:26:19.545Z,8.03
2023-03-30T08:28:46.217Z,8.37
2023-03-30T08:31:12.823Z,8.63
2023-03-30T08:33:39.827Z,8.93
2023-03-30T08:36:06.489Z,8.80
2023-03-30T08:38:33.462Z,8.77
2023-03-30T08:40:59.949Z,8.67
2023-03-30T08:43:41.943Z,8.93
2023-03-30T08:46:12.324Z,8.80
2023-03-30T08:48:45.462Z,9.47
2023-03-30T08:51:15.378Z,9.30
2023-03-30T08:53:41.978Z,9.60
2023-03-30T08:56:09.810Z,9.63
2023-03-30T08:58:55.092Z,9.00
2023-03-30T09:01:21.619Z,9.17
2023-03-30T09:03:59.145Z,8.80
2023-03-30T09:06:29.422Z,7.90
2023-03-30T09:08:56.032Z,8.07
2023-03-30T09:11:32.005Z,7.93
2023-03-30T09:14:01.746Z,8.37
2023-03-30T09:16:51.300Z,8.10
2023-03-30T09:19:25.118Z,8.30
2023-03-30T09:21:53.370Z,7.83
2023-03-30T09:24:25.172Z,8.50
2023-03-30T09:26:51.613Z,8.70
2023-03-30T09:29:20.042Z,8.77
2023-03-30T09:31:49.619Z,9.07
2023-03-30T09:34:46.851Z,8.63
2023-03-30T09:37:18.585Z,8.17
2023-03-30T09:39:48.556Z,8.20
2023-03-30T09:42:14.953Z,8.33
2023-03-30T09:44:44.995Z,8.63
2023-03-30T09:47:30.549Z,7.63
2023-03-30T09:49:58.536Z,10.03
2023-03-30T09:52:26.711Z,10.13
2023-03-30T09:54:53.336Z,8.70
2023-03-30T09:57:32.858Z,8.40
2023-03-30T10:00:00.611Z,7.90
2023-03-30T10:02:39.074Z,8.20
2023-03-30T10:05:06.663Z,8.27
2023-03-30T10:07:37.837Z,8.70
2023-03-30T10:10:13.253Z,8.67
2023-03-30T10:12:39.780Z,8.77
2023-03-30T10:15:06.744Z,8.40
2023-03-30T10:17:33.332Z,8.70
2023-03-30T10:20:24.722Z,8.67
2023-03-30T10:22:53.322Z,8.40
2023-03-30T10:25:21.458Z,7.93
2023-03-30T10:27:49.557Z,8.60
2023-03-30T10:30:18.742Z,39.30
2023-03-30T10:32:46.817Z,11.00
2023-03-30T10:35:17.581Z,8.80
2023-03-30T10:37:46.480Z,8.20
2023-03-30T10:40:37.280Z,8.33
2023-03-30T10:43:05.439Z,8.37
2023-03-30T10:45:37.754Z,8.23
2023-03-30T10:48:07.402Z,7.77
2023-03-30T10:51:06.393Z,7.43
2023-03-30T10:53:32.905Z,9.37
2023-03-30T10:56:31.602Z,10.47
2023-03-30T10:59:16.793Z,6.40
2023-03-30T11:01:58.265Z,7.57
2023-03-30T11:04:36.818Z,7.07
2023-03-30T11:07:06.221Z,7.10
2023-03-30T11:09:35.758Z,7.20
2023-03-30T11:12:05.651Z,7.90
2023-03-30T11:14:51.893Z,7.03
2023-03-30T11:17:27.458Z,7.10
2023-03-30T11:19:56.564Z,5.63
2023-03-30T11:22:41.753Z,5.53
2023-03-30T11:25:18.555Z,5.40
2023-03-30T11:27:55.617Z,5.33
2023-03-30T11:30:26.722Z,5.70
2023-03-30T11:32:53.308Z,13.10
2023-03-30T11:35:39.259Z,6.10
2023-03-30T11:38:13.125Z,6.27
2023-03-30T11:40:44.467Z,5.87
2023-03-30T11:43:12.450Z,5.20
2023-03-30T11:45:47.337Z,4.90
2023-03-30T11:48:28.947Z,5.20
2023-03-30T11:51:16.006Z,5.40
2023-03-30T11:53:45.339Z,5.70
2023-03-30T11:56:41.386Z,5.73
2023-03-30T11:59:26.521Z,4.83
2023-03-30T12:02:05.764Z,5.50
2023-03-30T12:04:39.161Z,6.10
2023-03-30T12:07:08.803Z,6.13
2023-03-30T12:09:38.603Z,5.83
2023-03-30T12:12:18.973Z,6.80
2023-03-30T12:15:03.791Z,6.17
2023-03-30T12:17:30.557Z,5.60
2023-03-30T12:20:04.941Z,5.80
2023-03-30T12:22:36.687Z,6.90
2023-03-30T12:25:18.693Z,7.90
2023-03-30T12:27:58.751Z,6.90
2023-03-30T12:30:27.702Z,6.77
2023-03-30T12:32:59.064Z,7.20
2023-03-30T12:35:44.343Z,6.17
2023-03-30T12:38:17.332Z,5.10
2023-03-30T12:40:48.572Z,5.03
2023-03-30T12:43:18.033Z,6.33
2023-03-30T12:46:02.367Z,5.40
2023-03-30T12:48:50.944Z,4.83
2023-03-30T12:51:26.165Z,10.60
2023-03-30T12:54:04.658Z,14.50
2023-03-30T12:56:34.181Z,14.03
2023-03-30T12:59:06.830Z,13.30
2023-03-30T13:01:33.336Z,13.07
2023-03-30T13:04:10.816Z,14.00
2023-03-30T13:06:41.128Z,15.60
2023-03-30T13:09:16.423Z,13.77
2023-03-30T13:11:45.209Z,12.20
2023-03-30T13:14:27.236Z,12.80
2023-03-30T13:16:53.751Z,13.77
2023-03-30T13:19:29.159Z,12.97
2023-03-30T13:21:57.630Z,12.20
2023-03-30T13:24:30.579Z,12.17
2023-03-30T13:27:15.798Z,12.63
2023-03-30T13:29:48.560Z,13.13
2023-03-30T13:32:19.554Z,13.80
2023-03-30T13:35:07.557Z,12.60
2023-03-30T13:37:53.131Z,14.57
2023-03-30T13:40:39.686Z,12.60
2023-03-30T13:43:08.228Z,13.87
2023-03-30T13:45:53.775Z,13.87
2023-03-30T13:48:56.631Z,14.03
2023-03-30T13:51:27.467Z,15.07
2023-03-30T13:53:59.264Z,14.40
2023-03-30T13:56:27.377Z,15.50
2023-03-30T13:59:01.956Z,15.20
2023-03-30T14:01:28.501Z,15.93
2023-03-30T14:03:56.686Z,16.83
2023-03-30T14:06:26.476Z,17.30
2023-03-30T14:09:19.146Z,17.30
2023-03-30T14:11:47.928Z,17.53
2023-03-30T14:14:34.671Z,18.10
2023-03-30T14:17:02.321Z,16.97
2023-03-30T14:19:42.167Z,18.07
2023-03-30T14:22:15.765Z,18.80
2023-03-30T14:24:55.823Z,17.87
2023-03-30T14:27:22.541Z,18.93
2023-03-30T14:29:50.543Z,19.60
2023-03-30T14:32:19.576Z,20.43
2023-03-30T14:34:47.462Z,20.33
2023-03-30T14:37:14.123Z,21.03
2023-03-30T14:39:54.300Z,18.63
2023-03-30T14:42:22.234Z,15.67
2023-03-30T14:44:50.509Z,27.73
2023-03-30T14:47:19.198Z,17.27
2023-03-30T14:49:47.601Z,16.07
2023-03-30T14:52:14.374Z,18.33
2023-03-30T14:54:48.668Z,19.27
2023-03-30T14:57:22.724Z,19.07
2023-03-30T15:00:00.163Z,22.73
2023-03-30T15:02:31.080Z,19.67
2023-03-30T15:04:58.093Z,19.90
2023-03-30T15:07:29.173Z,25.10
2023-03-30T15:09:56.621Z,17.20
2023-03-30T15:12:25.278Z,15.87
2023-03-30T15:14:54.651Z,15.57
2023-03-30T15:17:23.214Z,18.00
2023-03-30T15:19:51.000Z,16.57
2023-03-30T15:22:33.253Z,19.97
2023-03-30T15:25:05.123Z,20.50
2023-03-30T15:27:33.210Z,19.43
2023-03-30T15:30:01.698Z,21.17
2023-03-30T15:32:35.289Z,20.80
2023-03-30T15:35:01.823Z,20.90
2023-03-30T15:37:28.675Z,21.63
2023-03-30T15:39:55.225Z,21.23
2023-03-30T15:42:26.217Z,25.77
2023-03-30T15:45:01.582Z,24.50
2023-03-30T15:47:31.753Z,22.73
2023-03-30T15:49:58.264Z,21.43
2023-03-30T15:52:26.919Z,19.30
2023-03-30T15:54:55.427Z,20.00
2023-03-30T15:57:26.750Z,19.80
2023-03-30T15:59:56.429Z,19.40
2023-03-30T16:02:23.385Z,18.57
2023-03-30T16:04:50.401Z,19.40
2023-03-30T16:07:21.180Z,18.60
2023-03-30T16:09:47.760Z,19.23
2023-03-30T16:12:16.819Z,18.80
2023-03-30T16:14:43.472Z,20.63
2023-03-30T16:17:13.024Z,20.77
2023-03-30T16:19:42.798Z,19.77
2023-03-30T16:22:09.867Z,19.13
2023-03-30T16:24:37.713Z,19.07
2023-03-30T16:27:05.096Z,19.70
2023-03-30T16:29:31.739Z,19.80
2023-03-30T16:31:58.577Z,19.07
2023-03-30T16:34:25.436Z,20.27
2023-03-30T16:36:52.860Z,19.17
2023-03-30T16:43:12.280Z,19.20
2023-03-30T16:45:41.371Z,20.07
2023-03-30T16:48:08.105Z,19.03
2023-03-30T16:50:40.634Z,18.83
2023-03-30T16:53:08.961Z,19.67
2023-03-30T16:55:36.448Z,19.13
2023-03-30T16:58:03.365Z,20.10
2023-03-30T17:00:49.166Z,19.37
2023-03-30T17:03:16.111Z,20.93
2023-03-30T17:05:45.723Z,21.30
2023-03-30T17:08:17.928Z,21.00
2023-03-30T17:10:44.390Z,21.40
2023-03-30T17:13:11.579Z,21.17
2023-03-30T17:15:39.180Z,21.40
2023-03-30T17:18:08.956Z,22.57
2023-03-30T17:20:37.118Z,20.93
2023-03-30T17:23:03.908Z,20.80
2023-03-30T17:25:30.795Z,21.37
2023-03-30T17:27:57.658Z,22.10
2023-03-30T17:30:25.535Z,20.97
2023-03-30T17:32:52.450Z,19.63
2023-03-30T17:35:18.994Z,20.03
2023-03-30T17:37:45.884Z,19.47
2023-03-30T17:40:32.752Z,20.60
2023-03-30T17:42:59.285Z,20.03
2023-03-30T17:45:27.379Z,19.83
2023-03-30T17:47:53.979Z,20.47
2023-03-30T17:50:28.362Z,21.10
2023-03-30T17:52:56.766Z,20.20
2023-03-30T17:55:27.232Z,21.90
2023-03-30T17:57:54.219Z,22.60
2023-03-30T18:00:28.913Z,23.17
2023-03-30T18:02:55.827Z,22.23
2023-03-30T18:05:26.765Z,22.70
2023-03-30T18:07:53.620Z,23.57
2023-03-30T18:17:32.221Z,20.47
2023-03-30T18:20:00.230Z,20.77
2023-03-30T18:22:26.698Z,21.63
2023-03-30T18:24:53.198Z,21.63
2023-03-30T18:30:48.840Z,23.30
2023-03-30T18:33:18.231Z,23.63
2023-03-30T18:35:45.790Z,22.37
2023-03-30T18:38:12.987Z,21.20
2023-03-30T18:40:41.772Z,21.70
2023-03-30T18:43:08.218Z,22.47
2023-03-30T18:45:37.604Z,22.40
2023-03-30T18:48:05.374Z,22.47
2023-03-30T18:50:36.315Z,23.80
2023-03-30T18:53:04.260Z,22.97
2023-03-30T18:55:32.312Z,23.70
2023-03-30T18:57:58.986Z,24.73
2023-03-30T19:00:44.315Z,24.17
2023-03-30T19:03:11.653Z,24.67
2023-03-30T19:05:39.686Z,25.57
2023-03-30T19:08:06.587Z,28.83
2023-03-30T19:10:36.012Z,27.53
2023-03-30T19:13:02.475Z,28.90
2023-03-30T19:15:32.152Z,31.03
2023-03-30T19:17:58.704Z,31.23
2023-03-30T19:20:25.925Z,32.83
2023-03-30T19:22:52.844Z,38.50
2023-03-30T19:25:20.139Z,40.03
2023-03-30T19:27:59.575Z,36.03
2023-03-30T19:30:31.473Z,36.27
2023-03-30T19:32:59.255Z,42.77
2023-03-30T19:35:26.152Z,42.07
2023-03-30T19:38:11.515Z,42.63
2023-03-30T19:40:39.015Z,52.80
2023-03-30T19:43:05.711Z,50.53
2023-03-30T19:45:32.318Z,46.27
2023-03-30T19:47:59.187Z,40.30
2023-03-30T19:50:26.851Z,38.77
2023-03-30T19:52:55.247Z,36.27
2023-03-30T19:55:22.105Z,35.43
2023-03-30T19:57:48.574Z,38.03
2023-03-30T20:00:16.570Z,35.33
2023-03-30T20:02:44.242Z,35.03
2023-03-30T20:05:13.064Z,32.17
2023-03-30T20:07:40.998Z,24.80
2023-03-30T20:10:08.212Z,18.83
2023-03-30T20:12:34.853Z,18.03
2023-03-30T20:15:01.703Z,14.77
2023-03-30T20:17:30.016Z,14.57
2023-03-30T20:19:58.191Z,13.30
2023-03-30T20:22:25.551Z,13.80
2023-03-30T20:24:52.121Z,13.23
2023-03-30T20:27:18.640Z,13.87
2023-03-30T20:29:45.177Z,12.90
2023-03-30T20:32:11.660Z,12.53
2023-03-30T20:34:38.105Z,12.40
2023-03-30T20:37:04.575Z,11.90
2023-03-30T20:46:58.701Z,10.30
2023-03-30T20:49:25.709Z,10.37
2023-03-30T20:51:53.239Z,10.03
2023-03-30T20:54:20.596Z,8.73
2023-03-30T20:56:47.128Z,8.53
2023-03-30T20:59:13.650Z,8.33
2023-03-30T21:05:26.979Z,7.57
2023-03-30T21:07:55.191Z,7.53
2023-03-30T21:10:21.808Z,61.53
2023-03-30T21:12:48.264Z,8.40
2023-03-30T21:15:15.254Z,7.20
2023-03-30T21:17:41.799Z,7.80
2023-03-30T21:20:09.378Z,7.23
2023-03-30T21:26:06.194Z,6.93
2023-03-30T21:28:33.665Z,6.93
2023-03-30T21:31:00.841Z,6.07
2023-03-30T21:40:29.325Z,6.30
2023-03-30T21:42:55.919Z,5.50
2023-03-30T21:45:22.471Z,5.93
2023-03-30T21:47:51.574Z,6.30
2023-03-30T21:50:18.044Z,5.37
2023-03-30T21:52:44.471Z,6.20
2023-03-30T21:58:39.164Z,5.40
2023-03-30T22:01:12.179Z,5.30
2023-03-30T22:03:39.727Z,5.40
2023-03-30T22:06:07.935Z,5.20
2023-03-30T22:08:34.954Z,4.77
2023-03-30T22:11:01.366Z,5.13
2023-03-30T22:13:28.459Z,5.33
2023-03-30T22:15:58.855Z,5.33
2023-03-30T22:18:44.074Z,5.00
2023-03-30T22:21:14.908Z,5.03
2023-03-30T22:23:41.397Z,5.40
2023-03-30T22:26:08.424Z,5.10
2023-03-30T22:28:35.450Z,5.13
2023-03-30T22:31:01.893Z,5.07
2023-03-30T22:33:28.900Z,5.50
2023-03-30T22:35:57.111Z,4.70
2023-03-30T22:38:23.724Z,5.17
2023-03-30T22:40:50.204Z,5.07
2023-03-30T22:43:16.648Z,4.43
2023-03-30T22:49:36.052Z,4.20
2023-03-30T22:52:04.812Z,4.70
2023-03-30T22:54:31.775Z,4.37
2023-03-30T22:56:59.055Z,4.53
2023-03-30T22:59:25.950Z,4.53
2023-03-30T23:01:52.400Z,4.53
2023-03-30T23:04:19.467Z,4.80
2023-03-30T23:07:04.491Z,4.50
2023-03-30T23:09:32.118Z,4.20
2023-03-30T23:11:59.666Z,4.83
2023-03-30T23:14:28.916Z,4.17
2023-03-30T23:16:57.747Z,4.07
2023-03-30T23:19:25.997Z,4.20
2023-03-30T23:25:39.627Z,4.73
2023-03-30T23:28:06.427Z,4.20
2023-03-30T23:30:32.850Z,4.13
2023-03-30T23:32:59.377Z,4.23
2023-03-30T23:35:25.966Z,4.30
2023-03-30T23:37:57.672Z,4.17
2023-03-30T23:40:24.118Z,4.13
2023-03-30T23:42:50.820Z,4.17
2023-03-30T23:45:17.330Z,4.40
2023-03-30T23:47:44.049Z,3.63
2023-03-30T23:50:10.665Z,3.90
2023-03-30T23:59:46.424Z,3.60
